Time;durP1;ratioP1;P1;durP2;ratioP2;P2;SDS_P1;SDS_P2;PMS_P1;PMS_P2;Temp;Humidity;BMP_temperature;BMP_pressure;BME280_temperature;BME280_humidity;BME280_pressure;Samples;Min_cycle;Max_cycle;Signal;HPM_P1;HPM_P2
2024/04/05 00:02:13;;;;;;;;;2.33;1.33;;;;;22.40;46.06;100634.88;4939049;28;45412;-74
2024/04/05 00:04:38;;;;;;;;;1.00;1.00;;;;;23.46;45.95;100806.91;4938959;28;45359;-75
2024/04/05 00:07:04;;;;;;;;;3.00;1.00;;;;;23.31;45.85;100774.31;4938425;28;46460;-75
2024/04/05 00:09:29;;;;;;;;;0.00;0.00;;;;;23.33;46.06;100782.88;4938916;28;45307;-76
2024/04/05 00:11:55;;;;;;;;;1.00;1.00;;;;;23.47;46.58;100807.72;4939106;28;45271;-76
2024/04/05 00:14:20;;;;;;;;;0.33;0.33;;;;;23.29;46.04;100769.16;4938944;28;45392;-75
2024/04/05 00:16:45;;;;;;;;;5.33;2.00;;;;;23.46;46.24;100798.13;4937431;28;47289;-75
2024/04/05 00:19:11;;;;;;;;;0.00;0.00;;;;;23.16;45.71;100738.03;4938577;28;45446;-75
2024/04/05 00:21:37;;;;;;;;;3.00;1.00;;;;;23.32;45.98;100783.88;4938657;28;45260;-73
2024/04/05 00:24:02;;;;;;;;;1.00;0.33;;;;;23.25;46.01;100765.25;4938839;28;45283;-76
2024/04/05 00:26:28;;;;;;;;;2.00;2.00;;;;;23.22;46.05;100758.50;4938390;28;45480;-76
2024/04/05 00:28:53;;;;;;;;;1.33;1.00;;;;;23.12;46.43;100750.03;4938550;28;45355;-75
2024/04/05 00:31:19;;;;;;;;;1.00;1.00;;;;;23.40;46.13;100768.66;4938808;28;45279;-76
2024/04/05 00:33:44;;;;;;;;;1.00;1.00;;;;;23.02;46.24;100707.91;4938774;28;45332;-76
2024/04/05 00:36:11;;;;;;;;;1.00;1.00;;;;;22.90;46.05;100699.63;4936749;28;48375;-75
2024/04/05 00:38:36;;;;;;;;;3.00;0.67;;;;;23.38;46.41;100776.00;4938376;28;45404;-75
2024/04/05 00:41:02;;;;;;;;;1.33;0.67;;;;;23.26;46.02;100757.09;4938405;28;45547;-75
2024/04/05 00:43:28;;;;;;;;;1.00;0.00;;;;;23.30;45.91;100757.53;4938543;28;45418;-75
2024/04/05 00:45:54;;;;;;;;;3.00;0.00;;;;;23.33;46.23;100745.72;4938072;28;46543;-76
2024/04/05 00:48:21;;;;;;;;;3.00;1.00;;;;;23.27;46.02;100736.69;4938455;28;45474;-75
2024/04/05 00:50:49;;;;;;;;;0.33;0.33;;;;;22.94;45.88;100695.59;4938051;28;45339;-75
2024/04/05 00:53:19;;;;;;;;;1.00;0.33;;;;;23.36;46.01;100762.09;4938242;28;45619;-74
2024/04/05 00:55:46;;;;;;;;;1.33;1.33;;;;;22.79;45.90;100647.91;4938097;28;46094;-74
2024/04/05 00:58:13;;;;;;;;;1.67;1.33;;;;;23.11;45.60;100703.28;4938036;28;45331;-76
2024/04/05 01:00:38;;;;;;;;;2.33;2.00;;;;;23.31;46.02;100726.53;4938178;28;45250;-75
2024/04/05 01:03:03;;;;;;;;;1.00;1.00;;;;;23.27;45.55;100710.16;4938247;28;45284;-75
2024/04/05 01:05:29;;;;;;;;;2.67;1.00;;;;;23.22;45.76;100694.81;4937586;28;46200;-76
2024/04/05 01:07:56;;;;;;;;;1.00;1.00;;;;;22.93;46.04;100649.66;4936963;28;46230;-75
2024/04/05 01:10:21;;;;;;;;;4.67;2.00;;;;;23.14;45.73;100679.00;4936919;28;45434;-76
2024/04/05 01:13:01;;;;;;;;;0.00;0.00;;;;;23.34;45.53;100708.34;4938088;28;45431;-75
2024/04/05 01:15:26;;;;;;;;;2.67;1.67;;;;;23.33;46.01;100705.91;4937985;28;45946;-75
2024/04/05 01:17:51;;;;;;;;;0.00;0.00;;;;;23.04;46.30;100650.97;4937775;28;45292;-76
2024/04/05 01:20:19;;;;;;;;;0.67;0.67;;;;;23.32;45.95;100694.47;4937596;28;45795;-75
2024/04/05 01:22:53;;;;;;;;;2.67;0.00;;;;;23.29;45.83;100677.09;4938134;28;45664;-75
2024/04/05 01:25:21;;;;;;;;;1.00;1.00;;;;;22.98;45.98;100622.53;4937678;28;46119;-75
2024/04/05 01:27:46;;;;;;;;;2.67;0.33;;;;;23.20;46.09;100664.97;4937840;28;45385;-74
2024/04/05 01:30:12;;;;;;;;;2.00;1.00;;;;;23.21;45.78;100663.16;4937712;28;45261;-75
2024/04/05 01:32:38;;;;;;;;;2.67;1.00;;;;;23.29;46.08;100677.09;4937943;28;45365;-75
2024/04/05 01:35:03;;;;;;;;;1.00;1.00;;;;;23.16;46.15;100653.91;4937401;28;46250;-74
2024/04/05 01:37:29;;;;;;;;;0.00;0.00;;;;;23.11;45.71;100640.41;4937407;28;45368;-76
2024/04/05 01:39:54;;;;;;;;;1.00;1.00;;;;;23.18;46.10;100645.78;4937622;28;45344;-76
2024/04/05 01:42:19;;;;;;;;;4.00;0.67;;;;;22.84;45.86;100598.59;4937524;28;45486;-75
2024/04/05 01:44:45;;;;;;;;;1.00;1.00;;;;;23.28;45.80;100653.41;4937500;28;45649;-76
2024/04/05 01:47:10;;;;;;;;;1.00;1.00;;;;;22.49;45.89;100530.34;4937428;28;45239;-76
2024/04/05 01:49:36;;;;;;;;;1.00;1.00;;;;;23.23;46.03;100637.22;4937311;28;45386;-75
2024/04/05 01:52:01;;;;;;;;;0.67;0.33;;;;;23.12;45.54;100622.66;4937594;28;45337;-76
2024/04/05 01:54:26;;;;;;;;;0.00;0.00;;;;;22.88;45.95;100606.13;4937269;28;46532;-73
2024/04/05 01:56:52;;;;;;;;;0.00;0.00;;;;;23.26;45.79;100637.66;4937457;28;45285;-76
2024/04/05 01:59:17;;;;;;;;;1.00;1.00;;;;;23.00;45.85;100603.81;4937520;28;45401;-73
2024/04/05 02:01:42;;;;;;;;;3.00;1.00;;;;;23.26;45.57;100636.84;4936174;28;45261;-76
2024/04/05 02:04:08;;;;;;;;;1.00;1.00;;;;;23.20;45.79;100609.25;4936998;28;45277;-75
2024/04/05 02:06:33;;;;;;;;;1.67;1.67;;;;;23.23;45.84;100613.34;4940633;28;45285;-73
2024/04/05 02:08:59;;;;;;;;;3.67;2.33;;;;;23.27;45.91;100614.59;4940851;28;45557;-75
2024/04/05 02:11:25;;;;;;;;;1.67;1.33;;;;;22.92;45.94;100560.50;4940762;28;45378;-75
2024/04/05 02:13:50;;;;;;;;;2.33;1.00;;;;;22.42;45.78;100467.66;4940476;28;45529;-74
2024/04/05 02:16:15;;;;;;;;;0.33;0.33;;;;;23.05;45.73;100578.34;4940344;28;45304;-76
2024/04/05 02:18:41;;;;;;;;;2.33;0.33;;;;;22.90;45.41;100561.69;4940432;28;45325;-76
2024/04/05 02:21:06;;;;;;;;;1.00;1.00;;;;;23.25;45.95;100584.78;4940588;28;45482;-76
2024/04/05 02:23:31;;;;;;;;;0.00;0.00;;;;;22.78;45.76;100516.31;4940521;28;45353;-76
2024/04/05 02:25:57;;;;;;;;;0.00;0.00;;;;;23.25;45.55;100582.94;4940521;28;45335;-75
2024/04/05 02:28:22;;;;;;;;;0.00;0.00;;;;;23.02;45.62;100546.88;4940582;28;45371;-75
2024/04/05 02:30:48;;;;;;;;;0.00;0.00;;;;;23.26;45.88;100575.81;4940172;28;45381;-75
2024/04/05 02:33:13;;;;;;;;;1.00;1.00;;;;;23.25;45.52;100579.47;4940281;28;46132;-75
2024/04/05 02:35:39;;;;;;;;;1.00;1.00;;;;;23.20;45.99;100563.31;4940367;28;45485;-75
2024/04/05 02:38:05;;;;;;;;;1.00;0.67;;;;;23.17;45.42;100559.19;4940378;28;45341;-76
2024/04/05 02:40:30;;;;;;;;;2.33;0.67;;;;;23.24;45.79;100560.06;4940143;28;45528;-76
2024/04/05 02:42:56;;;;;;;;;0.00;0.00;;;;;22.59;45.62;100458.41;4940275;28;45438;-77
2024/04/05 02:45:21;;;;;;;;;3.00;2.00;;;;;23.16;45.93;100554.94;4939767;28;45362;-76
2024/04/05 02:47:47;;;;;;;;;1.00;1.00;;;;;23.25;45.67;100568.84;4940297;28;45580;-75
2024/04/05 02:50:12;;;;;;;;;1.00;1.00;;;;;22.94;45.94;100508.06;4938901;28;45517;-74
2024/04/05 02:52:37;;;;;;;;;1.67;1.67;;;;;23.17;45.83;100544.09;4940072;28;45508;-75
2024/04/05 02:55:05;;;;;;;;;1.67;1.33;;;;;21.94;46.01;100348.88;4940057;28;45374;-76
2024/04/05 02:57:30;;;;;;;;;1.00;1.00;;;;;23.09;45.85;100530.97;4940268;28;45452;-76
2024/04/05 02:59:56;;;;;;;;;1.00;1.00;;;;;23.21;45.90;100539.25;4939567;28;45272;-73
2024/04/05 03:02:21;;;;;;;;;2.00;2.00;;;;;22.68;45.87;100445.00;4940036;28;45310;-75
2024/04/05 03:04:47;;;;;;;;;2.33;1.00;;;;;22.29;45.83;100374.63;4939874;28;45323;-75
2024/04/05 03:07:12;;;;;;;;;2.00;1.00;;;;;23.16;46.11;100507.94;4939855;28;45303;-75
2024/04/05 03:09:40;;;;;;;;;2.00;2.00;;;;;23.15;45.94;100508.16;4939842;28;45545;-75
2024/04/05 03:12:05;;;;;;;;;1.00;1.00;;;;;23.21;46.15;100509.22;4939723;28;45566;-76
2024/04/05 03:14:31;;;;;;;;;1.00;1.00;;;;;22.88;45.99;100484.13;4939334;28;45351;-75
2024/04/05 03:16:57;;;;;;;;;2.00;1.00;;;;;22.90;45.71;100467.00;4938863;28;45404;-76
2024/04/05 03:19:22;;;;;;;;;2.00;2.00;;;;;23.12;46.00;100482.84;4939559;28;45583;-76
2024/04/05 03:21:47;;;;;;;;;1.67;0.33;;;;;23.13;45.83;100491.63;4939609;28;45399;-76
2024/04/05 03:24:13;;;;;;;;;2.00;1.33;;;;;23.04;45.78;100459.13;4939641;28;45272;-74
2024/04/05 03:26:39;;;;;;;;;0.67;0.67;;;;;23.00;45.76;100449.91;4939733;28;45275;-73
2024/04/05 03:29:04;;;;;;;;;1.00;0.00;;;;;23.03;45.75;100457.50;4939302;28;45275;-75
2024/04/05 03:31:30;;;;;;;;;1.00;1.00;;;;;23.17;45.77;100467.16;4939168;28;47274;-75
2024/04/05 03:33:55;;;;;;;;;0.00;0.00;;;;;23.06;45.81;100459.72;4939690;28;45319;-76
2024/04/05 03:36:21;;;;;;;;;1.00;1.00;;;;;23.23;45.51;100464.72;4939418;28;45457;-73
2024/04/05 03:38:49;;;;;;;;;1.00;1.00;;;;;22.33;45.42;100327.34;4939432;28;45461;-76
2024/04/05 03:41:15;;;;;;;;;0.00;0.00;;;;;22.57;45.30;100351.75;4939271;28;46350;-76
2024/04/05 03:43:40;;;;;;;;;0.00;0.00;;;;;23.04;45.80;100427.28;4938722;28;45346;-75
2024/04/05 03:46:06;;;;;;;;;1.67;1.67;;;;;23.18;46.04;100436.13;4939418;28;45467;-75
2024/04/05 03:48:31;;;;;;;;;0.00;0.00;;;;;22.85;45.66;100366.78;4939434;28;45488;-75
2024/04/05 03:50:56;;;;;;;;;2.00;1.00;;;;;22.92;45.48;100387.22;4939240;28;46219;-76
2024/04/05 03:53:21;;;;;;;;;1.00;0.00;;;;;23.21;45.38;100409.19;4939250;28;45370;-75
2024/04/05 03:55:47;;;;;;;;;0.00;0.00;;;;;23.21;45.65;100413.69;4939164;28;45478;-75
2024/04/05 03:58:13;;;;;;;;;1.67;0.33;;;;;23.15;45.79;100424.06;4938905;28;45247;-75
2024/04/05 04:00:38;;;;;;;;;1.00;1.00;;;;;22.85;45.99;100366.78;4938948;28;45300;-75
2024/04/05 04:03:04;;;;;;;;;0.00;0.00;;;;;22.40;45.83;100293.72;4939002;28;45389;-75
2024/04/05 04:05:29;;;;;;;;;2.00;1.67;;;;;23.15;45.35;100391.41;4939028;28;45628;-76
2024/04/05 04:07:54;;;;;;;;;1.00;1.00;;;;;23.00;45.90;100357.88;4939066;28;45513;-76
2024/04/05 04:10:20;;;;;;;;;2.00;1.00;;;;;23.06;45.79;100369.50;4938590;28;46247;-76
2024/04/05 04:12:45;;;;;;;;;1.00;1.00;;;;;23.18;45.39;100389.19;4938651;28;45365;-75
2024/04/05 04:15:11;;;;;;;;;1.33;0.00;;;;;23.11;45.66;100375.03;4938995;28;45342;-76
2024/04/05 04:17:37;;;;;;;;;1.00;1.00;;;;;23.19;45.70;100397.94;4938895;28;45436;-75
2024/04/05 04:20:04;;;;;;;;;0.00;0.00;;;;;23.17;45.53;100379.56;4938489;28;47274;-75
2024/04/05 04:22:32;;;;;;;;;1.00;1.00;;;;;23.19;45.45;100397.94;4938812;28;45307;-76
2024/04/05 04:24:57;;;;;;;;;2.00;0.33;;;;;22.89;45.81;100358.44;4938827;28;45334;-76
2024/04/05 04:27:23;;;;;;;;;3.67;1.33;;;;;23.11;45.61;100374.25;4937971;28;45283;-76
2024/04/05 04:29:48;;;;;;;;;1.00;1.00;;;;;22.78;45.61;100359.81;4937266;28;47196;-76
2024/04/05 04:32:15;;;;;;;;;1.00;1.00;;;;;23.19;45.57;100403.25;4938535;28;45307;-76
2024/04/05 04:34:40;;;;;;;;;0.00;0.00;;;;;23.02;45.64;100393.00;4938766;28;45295;-75
2024/04/05 04:37:06;;;;;;;;;0.00;0.00;;;;;23.00;45.90;100387.06;4938415;28;45243;-75
2024/04/05 04:39:31;;;;;;;;;3.00;1.00;;;;;22.99;45.51;100395.22;4938237;28;45838;-75
2024/04/05 04:41:57;;;;;;;;;1.00;1.00;;;;;22.68;45.87;100329.16;4938066;28;45359;-74
2024/04/05 04:44:22;;;;;;;;;1.00;0.00;;;;;22.38;45.41;100273.75;4938580;28;45575;-75
2024/04/05 04:46:48;;;;;;;;;1.00;1.00;;;;;23.05;45.27;100374.03;4938486;28;45429;-75
2024/04/05 04:49:14;;;;;;;;;0.33;0.00;;;;;22.83;45.57;100337.00;4938196;28;45554;-75
2024/04/05 04:51:40;;;;;;;;;1.00;1.00;;;;;23.10;45.43;100385.88;4938231;28;45481;-75
2024/04/05 04:54:06;;;;;;;;;0.00;0.00;;;;;23.01;45.37;100356.84;4936972;28;45420;-74
2024/04/05 04:56:32;;;;;;;;;1.00;1.00;;;;;23.00;45.29;100349.94;4938013;28;45430;-75
2024/04/05 04:58:58;;;;;;;;;1.00;1.00;;;;;22.83;45.67;100330.88;4938042;28;45951;-75
2024/04/05 05:01:23;;;;;;;;;0.00;0.00;;;;;23.13;45.02;100375.69;4938268;28;45528;-74
2024/04/05 05:03:49;;;;;;;;;0.00;0.00;;;;;23.03;45.57;100356.66;4938349;28;45438;-74
2024/04/05 05:06:14;;;;;;;;;2.00;1.00;;;;;23.01;45.43;100366.63;4938097;28;45559;-76
2024/04/05 05:08:39;;;;;;;;;1.33;0.33;;;;;22.78;45.51;100323.50;4938088;28;45436;-74
2024/04/05 05:11:05;;;;;;;;;0.67;0.67;;;;;23.07;45.20;100379.94;4937738;28;45370;-75
2024/04/05 05:13:31;;;;;;;;;1.00;1.00;;;;;22.83;45.67;100355.56;4938154;28;45228;-75
2024/04/05 05:15:57;;;;;;;;;2.00;1.00;;;;;23.18;45.91;100391.00;4937978;28;45550;-75
2024/04/05 05:18:22;;;;;;;;;0.00;0.00;;;;;23.02;45.94;100371.78;4937701;28;45784;-75
2024/04/05 05:20:49;;;;;;;;;0.00;0.00;;;;;23.15;45.71;100409.97;4937933;28;45351;-74
2024/04/05 05:23:15;;;;;;;;;0.00;0.00;;;;;22.95;45.79;100389.50;4937989;28;45362;-75
2024/04/05 05:25:43;;;;;;;;;0.67;0.67;;;;;23.11;45.31;100422.81;4937492;28;45354;-75
2024/04/05 05:28:09;;;;;;;;;2.33;1.00;;;;;23.06;45.87;100404.84;4937668;28;45267;-75
2024/04/05 05:30:35;;;;;;;;;2.00;1.00;;;;;22.82;45.74;100369.03;4937560;28;45315;-74
2024/04/05 05:33:00;;;;;;;;;0.00;0.00;;;;;23.12;45.60;100408.53;4937777;28;45974;-76
2024/04/05 05:35:25;;;;;;;;;1.33;1.33;;;;;23.12;45.88;100421.81;4937907;28;45275;-74
2024/04/05 05:37:51;;;;;;;;;2.00;1.00;;;;;23.17;45.65;100424.69;4936807;28;46542;-73
2024/04/05 05:40:16;;;;;;;;;1.67;1.67;;;;;23.00;45.75;100396.84;4920761;28;45638;-72
2024/04/05 05:42:41;;;;;;;;;1.33;0.67;;;;;22.88;45.80;100381.50;4918792;28;45327;-73
2024/04/05 05:45:07;;;;;;;;;1.00;1.00;;;;;23.02;45.51;100393.00;4918447;28;45373;-74
2024/04/05 05:47:32;;;;;;;;;0.00;0.00;;;;;23.02;46.16;100390.34;4916768;28;46472;-74
2024/04/05 05:49:59;;;;;;;;;0.00;0.00;;;;;23.24;45.52;100421.22;4918152;28;45416;-73
2024/04/05 05:52:24;;;;;;;;;0.00;0.00;;;;;23.25;46.04;100415.72;4918318;28;45419;-73
2024/04/05 05:54:51;;;;;;;;;0.00;0.00;;;;;23.20;45.81;100427.94;4917905;28;45375;-73
2024/04/05 05:57:16;;;;;;;;;1.00;1.00;;;;;23.08;45.84;100412.63;4918241;28;47041;-74
2024/04/05 05:59:41;;;;;;;;;1.00;1.00;;;;;23.25;45.63;100441.44;4918082;28;45360;-74
2024/04/05 06:02:07;;;;;;;;;1.00;1.00;;;;;23.20;45.81;100425.31;4918327;28;45356;-74
2024/04/05 06:04:32;;;;;;;;;0.67;0.67;;;;;23.22;46.15;100433.88;4918287;28;45364;-75
2024/04/05 06:06:58;;;;;;;;;1.00;1.00;;;;;23.09;45.98;100408.94;4917974;28;47331;-74
2024/04/05 06:09:23;;;;;;;;;0.00;0.00;;;;;23.23;45.60;100425.72;4917866;28;45413;-72
2024/04/05 06:11:50;;;;;;;;;0.00;0.00;;;;;23.24;45.79;100434.50;4918240;28;45403;-73
2024/04/05 06:14:16;;;;;;;;;1.00;1.00;;;;;23.20;45.87;100430.59;4918139;28;45446;-75
2024/04/05 06:16:41;;;;;;;;;1.00;1.00;;;;;23.20;45.50;100414.69;4917903;28;45903;-76
2024/04/05 06:19:07;;;;;;;;;0.00;0.00;;;;;23.24;46.05;100426.53;4924539;28;45455;-73
2024/04/05 06:21:32;;;;;;;;;2.00;1.00;;;;;23.12;45.75;100402.41;4937391;28;45393;-77
2024/04/05 06:24:01;;;;;;;;;1.67;1.00;;;;;23.16;45.84;100411.63;4936967;28;45382;-77
2024/04/05 06:26:26;;;;;;;;;1.00;1.00;;;;;23.22;45.81;100421.44;4936954;28;46530;-76
2024/04/05 06:28:52;;;;;;;;;1.33;1.00;;;;;23.25;45.93;100431.66;4936987;28;45238;-75
2024/04/05 06:31:18;;;;;;;;;0.00;0.00;;;;;23.16;45.93;100448.78;4937204;28;45279;-75
2024/04/05 06:33:44;;;;;;;;;0.00;0.00;;;;;23.26;46.04;100474.94;4937189;28;45301;-76
2024/04/05 06:36:09;;;;;;;;;1.00;1.00;;;;;23.07;45.98;100456.06;4936767;28;45338;-75
2024/04/05 06:38:35;;;;;;;;;3.33;0.00;;;;;23.22;46.01;100489.59;4936482;28;45368;-77
2024/04/05 06:41:01;;;;;;;;;1.00;1.00;;;;;23.16;46.04;100488.59;4937132;28;45287;-76
2024/04/05 06:43:28;;;;;;;;;2.00;0.00;;;;;23.15;46.15;100474.50;4936990;28;45501;-76
2024/04/05 06:45:56;;;;;;;;;1.00;1.00;;;;;23.25;46.41;100505.97;4936679;28;46972;-76
2024/04/05 06:48:22;;;;;;;;;1.00;1.00;;;;;23.25;46.03;100519.25;4936834;28;45425;-75
2024/04/05 06:50:49;;;;;;;;;3.00;0.33;;;;;23.19;46.02;100512.06;4937730;28;45335;-76
2024/04/05 06:53:24;;;;;;;;;0.67;0.67;;;;;23.15;46.19;100506.34;4939950;28;45398;-76
2024/04/05 06:55:50;;;;;;;;;0.33;0.33;;;;;23.19;46.37;100517.34;4939842;28;46304;-76
2024/04/05 06:58:17;;;;;;;;;1.00;1.00;;;;;23.24;46.30;100519.41;4939948;28;45287;-76
2024/04/05 07:00:43;;;;;;;;;2.67;1.00;;;;;23.17;46.17;100501.66;4940066;28;45506;-76
2024/04/05 07:03:09;;;;;;;;;0.33;0.33;;;;;23.21;46.15;100488.00;4939922;28;45405;-76
2024/04/05 07:05:34;;;;;;;;;0.33;0.33;;;;;23.22;46.88;100486.94;4939701;28;45543;-76
2024/04/05 07:08:00;;;;;;;;;1.00;1.00;;;;;23.15;46.47;100461.22;4939373;28;45377;-76
2024/04/05 07:10:26;;;;;;;;;1.00;1.00;;;;;23.22;45.96;100485.13;4940098;28;45375;-76
2024/04/05 07:12:52;;;;;;;;;0.67;0.67;;;;;23.22;45.89;100482.47;4940033;28;45406;-77
2024/04/05 07:15:19;;;;;;;;;1.33;0.00;;;;;23.20;46.32;100475.72;4939779;28;45438;-75
2024/04/05 07:17:52;;;;;;;;;1.33;1.33;;;;;23.13;45.90;100470.41;4939766;28;45426;-76
2024/04/05 07:20:21;;;;;;;;;0.00;0.00;;;;;23.11;46.05;100467.13;4939545;28;45232;-76
2024/04/05 07:22:47;;;;;;;;;1.67;1.00;;;;;23.23;46.43;100492.09;4939461;28;45307;-76
2024/04/05 07:25:13;;;;;;;;;2.00;1.00;;;;;23.17;46.49;100490.19;4939442;28;47217;-76
2024/04/05 07:27:39;;;;;;;;;0.00;0.00;;;;;23.10;46.12;100484.06;4939535;28;45448;-76
2024/04/05 07:30:06;;;;;;;;;1.00;1.00;;;;;23.12;46.35;100474.88;4939768;28;45362;-76
2024/04/05 07:32:31;;;;;;;;;1.33;1.00;;;;;23.23;46.27;100492.09;4939459;28;45339;-75
2024/04/05 07:34:57;;;;;;;;;0.00;0.00;;;;;23.13;45.97;100471.22;4939733;28;45511;-75
2024/04/05 07:37:22;;;;;;;;;2.33;1.00;;;;;22.91;46.32;100460.69;4939101;28;45335;-75
2024/04/05 07:39:50;;;;;;;;;1.67;1.00;;;;;22.92;46.09;100461.50;4939362;28;45460;-76
2024/04/05 07:42:16;;;;;;;;;1.00;1.00;;;;;23.13;45.96;100491.63;4939464;28;45260;-76
2024/04/05 07:44:45;;;;;;;;;0.00;0.00;;;;;23.17;46.41;100496.34;4939187;28;46207;-77
2024/04/05 07:47:10;;;;;;;;;0.00;0.00;;;;;22.98;45.98;100452.75;4938974;28;45446;-76
2024/04/05 07:49:35;;;;;;;;;1.00;1.00;;;;;23.20;46.03;100497.78;4939248;28;45444;-76
2024/04/05 07:52:01;;;;;;;;;1.00;1.00;;;;;23.14;46.16;100482.63;4937727;28;45409;-75
2024/04/05 07:54:26;;;;;;;;;0.00;0.00;;;;;23.20;46.33;100502.25;4939252;28;45953;-75
2024/04/05 07:56:54;;;;;;;;;0.67;0.67;;;;;23.08;46.70;100489.56;4939112;28;45384;-75
2024/04/05 07:59:20;;;;;;;;;0.67;0.67;;;;;23.15;46.16;100502.84;4939371;28;45339;-76
2024/04/05 08:01:46;;;;;;;;;3.33;1.00;;;;;22.92;46.38;100475.59;4938882;28;45475;-76
2024/04/05 08:04:11;;;;;;;;;0.00;0.00;;;;;23.11;46.30;100528.16;4938497;28;46558;-77
2024/04/05 08:06:36;;;;;;;;;3.00;0.00;;;;;23.15;46.24;100519.59;4938647;28;45441;-77
2024/04/05 08:09:02;;;;;;;;;1.67;0.00;;;;;23.22;46.20;100526.75;4938984;28;45355;-76
2024/04/05 08:11:27;;;;;;;;;1.00;1.00;;;;;23.18;46.61;100532.50;4939132;28;45477;-76
2024/04/05 08:13:53;;;;;;;;;0.67;0.67;;;;;23.23;46.14;100539.84;4939131;28;45983;-76
2024/04/05 08:16:18;;;;;;;;;1.00;1.00;;;;;23.13;46.35;100532.25;4938976;28;45395;-76
2024/04/05 08:18:44;;;;;;;;;2.33;0.67;;;;;23.10;46.14;100529.16;4939009;28;45800;-76
2024/04/05 08:21:09;;;;;;;;;1.00;1.00;;;;;23.23;46.51;100555.78;4938441;28;45632;-76
2024/04/05 08:23:35;;;;;;;;;2.33;1.00;;;;;23.08;46.00;100542.63;4938807;28;45388;-76
2024/04/05 08:26:00;;;;;;;;;1.00;1.00;;;;;23.14;46.24;100555.09;4938718;28;45357;-76
2024/04/05 08:28:27;;;;;;;;;1.67;1.00;;;;;23.14;46.38;100559.59;4938864;28;45322;-76
2024/04/05 08:30:52;;;;;;;;;0.00;0.00;;;;;23.22;46.18;100564.75;4938891;28;45448;-76
2024/04/05 08:33:18;;;;;;;;;1.00;1.00;;;;;23.06;46.23;100529.53;4938317;28;46206;-75
2024/04/05 08:35:54;;;;;;;;;0.00;0.00;;;;;23.02;45.96;100530.97;4937309;28;45451;-77
2024/04/05 08:38:19;;;;;;;;;1.00;1.00;;;;;23.20;46.36;100561.47;4938598;28;45428;-76
2024/04/05 08:40:45;;;;;;;;;1.00;1.00;;;;;23.23;45.97;100579.66;4938415;28;45286;-76
2024/04/05 08:43:15;;;;;;;;;1.00;1.00;;;;;23.22;46.02;100585.97;4938372;28;45363;-76
2024/04/05 08:45:41;;;;;;;;;1.00;1.00;;;;;23.23;46.43;100592.13;4938293;28;45409;-76
2024/04/05 08:48:08;;;;;;;;;1.00;1.00;;;;;23.23;46.07;100595.59;4938246;28;45411;-76
2024/04/05 08:50:34;;;;;;;;;0.00;0.00;;;;;22.45;46.27;100473.41;4938578;28;45428;-76
2024/04/05 08:53:00;;;;;;;;;1.67;1.00;;;;;23.07;46.17;100578.13;4938214;28;45402;-77
2024/04/05 08:55:26;;;;;;;;;0.33;0.33;;;;;22.93;45.99;100566.59;4938203;28;45383;-76
2024/04/05 08:57:52;;;;;;;;;2.00;1.00;;;;;22.96;46.20;100577.66;4938376;28;45390;-76
2024/04/05 09:00:23;;;;;;;;;1.00;0.33;;;;;23.16;46.34;100610.66;4938258;28;45385;-76
2024/04/05 09:02:56;;;;;;;;;0.00;0.00;;;;;23.16;46.35;100624.72;4937678;28;46219;-77
2024/04/05 09:05:23;;;;;;;;;0.00;0.00;;;;;22.97;46.48;100607.66;4938069;28;45505;-77
2024/04/05 09:08:05;;;;;;;;;2.33;1.67;;;;;23.23;46.17;100642.53;4938042;28;45318;-76
2024/04/05 09:10:31;;;;;;;;;1.00;1.00;;;;;23.17;46.58;100630.84;4938028;28;45465;-76
2024/04/05 09:12:59;;;;;;;;;0.00;0.00;;;;;23.10;46.17;100622.03;4937959;28;46106;-77
2024/04/05 09:15:25;;;;;;;;;0.00;0.00;;;;;23.23;46.11;100632.75;4936864;28;45467;-77
2024/04/05 09:17:51;;;;;;;;;0.33;0.33;;;;;23.23;46.21;100623.97;4937830;28;45378;-77
2024/04/05 09:20:24;;;;;;;;;0.00;0.00;;;;;23.23;46.15;100634.59;4937861;28;45326;-77
2024/04/05 09:22:49;;;;;;;;;0.00;0.00;;;;;23.05;46.27;100604.88;4937831;28;46092;-77
2024/04/05 09:25:16;;;;;;;;;0.00;0.00;;;;;23.22;46.11;100636.41;4937895;28;45402;-76
2024/04/05 09:27:42;;;;;;;;;0.33;0.33;;;;;23.16;45.99;100621.28;4938111;28;45446;-76
2024/04/05 09:30:09;;;;;;;;;0.67;0.67;;;;;23.13;46.30;100635.75;4937837;28;45420;-76
2024/04/05 09:32:34;;;;;;;;;1.33;0.33;;;;;23.14;46.40;100644.50;4936158;28;46167;-76
2024/04/05 09:35:03;;;;;;;;;0.00;0.00;;;;;23.23;46.29;100658.47;4937610;28;45519;-76
2024/04/05 09:37:28;;;;;;;;;1.00;1.00;;;;;23.12;46.36;100647.38;4937713;28;45310;-76
2024/04/05 09:39:54;;;;;;;;;1.00;0.00;;;;;23.22;46.11;100676.22;4937569;28;45485;-76
2024/04/05 09:42:23;;;;;;;;;0.00;0.00;;;;;23.05;46.15;100652.63;4937582;28;45418;-76
2024/04/05 09:44:55;;;;;;;;;1.00;1.00;;;;;23.17;46.36;100676.81;4937598;28;45406;-76
2024/04/05 09:47:26;;;;;;;;;1.00;1.00;;;;;23.22;46.13;100678.88;4937235;28;45298;-76
2024/04/05 09:49:51;;;;;;;;;2.00;0.00;;;;;23.05;46.11;100659.75;4937634;28;45427;-76
2024/04/05 09:52:20;;;;;;;;;0.00;0.00;;;;;23.23;46.07;100687.66;4937409;28;46086;-76
2024/04/05 09:54:51;;;;;;;;;0.33;0.33;;;;;23.17;46.57;100673.31;4937699;28;45275;-76
2024/04/05 09:57:17;;;;;;;;;1.00;1.00;;;;;23.16;46.24;100677.81;4937444;28;45423;-76
2024/04/05 09:59:46;;;;;;;;;1.00;1.00;;;;;23.23;45.59;100687.66;4936219;28;45251;-76
2024/04/05 10:02:12;;;;;;;;;1.00;1.00;;;;;23.12;46.24;100679.22;4937007;28;45366;-76
2024/04/05 10:04:38;;;;;;;;;0.00;0.00;;;;;23.24;46.17;100699.91;4937449;28;45342;-77
2024/04/05 10:07:07;;;;;;;;;1.00;1.00;;;;;23.24;46.35;100702.56;4937402;28;45466;-76
2024/04/05 10:09:34;;;;;;;;;1.00;1.00;;;;;23.24;46.44;100689.28;4937314;28;45387;-76
2024/04/05 10:12:13;;;;;;;;;0.00;0.00;;;;;23.22;46.27;100696.63;4937314;28;45470;-77
2024/04/05 10:14:39;;;;;;;;;2.00;0.00;;;;;23.15;46.47;100700.06;4937253;28;45432;-76
2024/04/05 10:17:08;;;;;;;;;0.00;0.00;;;;;23.24;46.13;100705.22;4937018;28;45489;-76
2024/04/05 10:19:38;;;;;;;;;0.67;0.67;;;;;23.24;45.95;100702.56;4937149;28;45398;-77
2024/04/05 10:22:08;;;;;;;;;1.33;1.00;;;;;23.25;45.86;100694.41;4936943;28;46673;-76
2024/04/05 10:24:35;;;;;;;;;0.33;0.33;;;;;23.14;46.01;100671.88;4937138;28;45427;-77
2024/04/05 10:27:01;;;;;;;;;0.00;0.00;;;;;22.98;45.78;100649.06;4939827;28;45279;-76
2024/04/05 10:29:27;;;;;;;;;1.33;1.00;;;;;23.11;46.06;100668.81;4940291;28;45417;-76
2024/04/05 10:32:09;;;;;;;;;1.00;0.00;;;;;23.25;46.20;100686.47;4940338;28;46862;-76
2024/04/05 10:34:37;;;;;;;;;0.00;0.00;;;;;23.25;46.04;100696.25;4940530;28;45311;-76
2024/04/05 10:37:05;;;;;;;;;0.00;0.00;;;;;23.21;45.90;100690.53;4940352;28;45342;-76
2024/04/05 10:39:32;;;;;;;;;0.00;0.00;;;;;23.25;46.10;100706.88;4940249;28;45547;-76
2024/04/05 10:41:57;;;;;;;;;0.67;0.67;;;;;22.96;45.91;100651.94;4940263;28;45942;-76
2024/04/05 10:44:23;;;;;;;;;0.00;0.00;;;;;23.25;46.28;100699.72;4939987;28;45429;-76
2024/04/05 10:46:49;;;;;;;;;0.33;0.33;;;;;23.19;46.51;100681.91;4940435;28;45454;-77
2024/04/05 10:49:15;;;;;;;;;1.33;0.33;;;;;23.21;46.27;100687.03;4940185;28;45445;-76
2024/04/05 10:51:42;;;;;;;;;0.00;0.00;;;;;23.26;45.98;100708.53;4940305;28;45518;-76
2024/04/05 10:54:11;;;;;;;;;0.00;0.00;;;;;23.18;46.01;100691.72;4940093;28;45433;-76
2024/04/05 10:56:40;;;;;;;;;0.00;0.00;;;;;23.25;45.81;100697.06;4940287;28;45408;-76
2024/04/05 10:59:07;;;;;;;;;0.67;0.67;;;;;23.25;46.02;100701.56;4939657;28;45361;-76
2024/04/05 11:01:35;;;;;;;;;2.00;0.00;;;;;23.17;45.75;100686.59;4939892;28;46205;-76
2024/04/05 11:04:05;;;;;;;;;0.00;0.00;;;;;23.16;46.32;100690.28;4940064;28;45467;-76
2024/04/05 11:06:33;;;;;;;;;0.00;0.00;;;;;23.23;45.76;100700.94;4939896;28;45388;-76
2024/04/05 11:08:59;;;;;;;;;0.00;0.00;;;;;23.27;46.34;100699.53;4939734;28;45534;-77
2024/04/05 11:11:28;;;;;;;;;1.00;1.00;;;;;23.18;46.29;100680.28;4939781;28;45593;-76
2024/04/05 11:14:03;;;;;;;;;0.00;0.00;;;;;23.22;46.12;100692.16;4939534;28;45303;-77
2024/04/05 11:16:30;;;;;;;;;1.00;0.00;;;;;23.29;46.13;100705.47;4939793;28;45269;-76
2024/04/05 11:18:55;;;;;;;;;0.00;0.00;;;;;23.25;45.73;100688.28;4939679;28;45442;-76
2024/04/05 11:21:21;;;;;;;;;1.00;0.00;;;;;23.29;46.20;100708.94;4939695;28;45389;-76